Hlavní strana
METAR-TAF:

METAR-TAF

Letiště :

Letiště Longyearbyen

Longyearbyen, Norsko

zeměpisná šířka: 78-15N, zeměpisná délka: 015-28E, výška: 2 m

Aktuální stav počasí

Zpráva byla vytvořena před 22 minutami, v 04:50 UTC
Východojihovýchodní vítr 10 kt
Teplota -6°C
Vlhkost vzduchu 62%
Tlak 1024 hPa
Viditelnost 10 km a více
Skoro jasno ve výšce 2500 ft
Polojasno ve výšce 3000 ft
Oblačno až skoro zataženo ve výšce 5000 ft

METAR: ENSB 170450Z 12010KT 9999 FEW025 SCT030 BKN050 M06/M12 Q1024 RMK WIND 1400FT 21009KT

Čas: 06:12 (05:12 UTC)

Předpověď počasí

Předpověď platná od 17 v 00 UTC do 17 v 24 UTC
Východojihovýchodní vítr 8 kt
Viditelnost 10 km a více
Skoro jasno ve výšce 1500 ft
Změna
od 17 v 02 UTC do 17 v 05 UTC
Jihozápadní vítr 10 kt
Dočasný
od 17 v 06 UTC do 17 v 24 UTC
Západojihozápadní vítr 25 kt
Viditelnost: 4000 m
ve výšce 1200 ft
slabé sněhové přeháňky

TAF: ENSB 1700/1724 12008KT 9999 FEW015 BECMG 1702/1705 22010KT TEMPO 1706/1724 24025KT 4000 -SHSN VV012

Stav a předpovědi počasí z více než 4 000 letišť (zprávy METAR a TAF).

Červené a žluté tečky na mapě představují dostupné meteorologické stanice.

Když kurzor umístíte na tečku, zobrazí se název stanice.

Pak kliknutím zobrazíte stav a předpověď počasí.

Chcete-li změnit mapu, kliknutím na zelené tlačítko se znaménkem +mapu přiblížíte, kliknutím na zelené tlačítko se znaménkem – mapu oddálíte a kliknutím na zelené šipky přejdete na sousední mapy.


METAR-TAF: